Terminal Aerodrome Forecast
Issued by NWS

Home | Current Version | Previous Version | Text Only | Print | Product List | Glossary On
Versions: 1 2 3 4 5 6 7 8 9 10 11 12 13 14 15
000
FTAK31 PAJN 030500
TAFASI
TAF
PASI 030524Z 0306/0406 08004KT P6SM VCSH SCT025 BKN050
     FM030900 13004KT P6SM VCSH SCT030 OVC050
     FM031900 24004KT P6SM -SHRA BKN030 OVC050
     FM040000 26005KT P6SM VCSH SCT015 OVC040=

USA.gov is the U.S. government's official web portal to all federal, state and local government web resources and services.